sensor_id;sensor_type;location;lat;lon;timestamp;pressure;altitude;pressure_sealevel;temperature;humidity
58991;BME280;44781;53.444;14.476;2023-07-31T00:01:32;100909.98;;;16.78;64.41
58991;BME280;44781;53.444;14.476;2023-07-31T00:04:30;100909.17;;;16.78;64.60
58991;BME280;44781;53.444;14.476;2023-07-31T00:07:11;100908.33;;;16.77;64.57
58991;BME280;44781;53.444;14.476;2023-07-31T00:10:02;100904.38;;;16.78;64.89
58991;BME280;44781;53.444;14.476;2023-07-31T00:12:46;100913.84;;;16.79;65.12
58991;BME280;44781;53.444;14.476;2023-07-31T00:15:36;100915.30;;;16.81;65.10
58991;BME280;44781;53.444;14.476;2023-07-31T00:18:03;100907.61;;;16.83;65.20
58991;BME280;44781;53.444;14.476;2023-07-31T00:20:30;100906.27;;;16.84;65.38
58991;BME280;44781;53.444;14.476;2023-07-31T00:22:57;100908.70;;;16.85;65.55
58991;BME280;44781;53.444;14.476;2023-07-31T00:25:24;100909.61;;;16.84;65.73
58991;BME280;44781;53.444;14.476;2023-07-31T00:27:51;100901.69;;;16.85;65.52
58991;BME280;44781;53.444;14.476;2023-07-31T00:30:18;100901.09;;;16.84;65.79
58991;BME280;44781;53.444;14.476;2023-07-31T00:32:45;100903.02;;;16.82;65.87
58991;BME280;44781;53.444;14.476;2023-07-31T00:35:12;100905.31;;;16.81;66.05
58991;BME280;44781;53.444;14.476;2023-07-31T00:37:39;100901.80;;;16.80;66.14
58991;BME280;44781;53.444;14.476;2023-07-31T00:40:06;100903.44;;;16.80;66.37
58991;BME280;44781;53.444;14.476;2023-07-31T00:42:34;100906.63;;;16.80;66.53
58991;BME280;44781;53.444;14.476;2023-07-31T00:45:00;100908.70;;;16.81;66.66
58991;BME280;44781;53.444;14.476;2023-07-31T00:47:27;100910.17;;;16.82;66.61
58991;BME280;44781;53.444;14.476;2023-07-31T00:49:54;100910.70;;;16.84;66.85
58991;BME280;44781;53.444;14.476;2023-07-31T00:52:21;100907.94;;;16.85;66.84
58991;BME280;44781;53.444;14.476;2023-07-31T00:54:49;100902.61;;;16.85;66.92
58991;BME280;44781;53.444;14.476;2023-07-31T00:57:15;100901.17;;;16.83;66.92
58991;BME280;44781;53.444;14.476;2023-07-31T00:59:42;100897.23;;;16.81;67.07
58991;BME280;44781;53.444;14.476;2023-07-31T01:02:11;100897.45;;;16.79;66.99
58991;BME280;44781;53.444;14.476;2023-07-31T01:04:39;100899.27;;;16.76;67.29
58991;BME280;44781;53.444;14.476;2023-07-31T01:07:16;100900.73;;;16.74;67.57
58991;BME280;44781;53.444;14.476;2023-07-31T01:10:11;100894.83;;;16.73;67.67
58991;BME280;44781;53.444;14.476;2023-07-31T01:12:41;100889.27;;;16.72;67.67
58991;BME280;44781;53.444;14.476;2023-07-31T01:15:12;100887.49;;;16.71;67.69
58991;BME280;44781;53.444;14.476;2023-07-31T01:17:46;100887.91;;;16.71;67.81
58991;BME280;44781;53.444;14.476;2023-07-31T01:20:27;100887.16;;;16.71;67.93
58991;BME280;44781;53.444;14.476;2023-07-31T01:23:13;100883.80;;;16.71;67.97
58991;BME280;44781;53.444;14.476;2023-07-31T01:26:22;100887.13;;;16.70;68.03
58991;BME280;44781;53.444;14.476;2023-07-31T01:29:07;100888.11;;;16.67;68.06
58991;BME280;44781;53.444;14.476;2023-07-31T01:31:39;100884.70;;;16.64;68.15
58991;BME280;44781;53.444;14.476;2023-07-31T01:34:08;100880.70;;;16.61;68.25
58991;BME280;44781;53.444;14.476;2023-07-31T01:36:37;100880.78;;;16.59;68.27
58991;BME280;44781;53.444;14.476;2023-07-31T01:39:04;100884.65;;;16.57;68.54
58991;BME280;44781;53.444;14.476;2023-07-31T01:41:31;100882.60;;;16.56;68.67
58991;BME280;44781;53.444;14.476;2023-07-31T01:43:57;100877.98;;;16.56;68.83
58991;BME280;44781;53.444;14.476;2023-07-31T01:46:24;100876.27;;;16.55;68.83
58991;BME280;44781;53.444;14.476;2023-07-31T01:48:51;100875.20;;;16.55;68.71
58991;BME280;44781;53.444;14.476;2023-07-31T01:51:18;100874.22;;;16.54;68.90
58991;BME280;44781;53.444;14.476;2023-07-31T01:53:45;100875.82;;;16.53;69.13
58991;BME280;44781;53.444;14.476;2023-07-31T01:56:12;100871.84;;;16.50;68.96
58991;BME280;44781;53.444;14.476;2023-07-31T01:58:40;100869.43;;;16.47;69.23
58991;BME280;44781;53.444;14.476;2023-07-31T02:01:06;100873.76;;;16.45;69.34
58991;BME280;44781;53.444;14.476;2023-07-31T02:03:34;100874.17;;;16.42;69.46
58991;BME280;44781;53.444;14.476;2023-07-31T02:06:02;100873.68;;;16.40;69.53
58991;BME280;44781;53.444;14.476;2023-07-31T02:08:29;100875.23;;;16.39;69.65
58991;BME280;44781;53.444;14.476;2023-07-31T02:10:56;100870.99;;;16.38;69.78
58991;BME280;44781;53.444;14.476;2023-07-31T02:13:23;100869.36;;;16.39;69.76
58991;BME280;44781;53.444;14.476;2023-07-31T02:15:50;100868.63;;;16.39;69.77
58991;BME280;44781;53.444;14.476;2023-07-31T02:18:20;100865.75;;;16.39;69.90
58991;BME280;44781;53.444;14.476;2023-07-31T02:20:50;100864.73;;;16.38;70.05
58991;BME280;44781;53.444;14.476;2023-07-31T02:23:18;100861.11;;;16.37;69.94
58991;BME280;44781;53.444;14.476;2023-07-31T02:25:45;100857.92;;;16.35;70.03
58991;BME280;44781;53.444;14.476;2023-07-31T02:28:12;100860.23;;;16.33;70.05
58991;BME280;44781;53.444;14.476;2023-07-31T02:30:53;100860.83;;;16.31;69.92
58991;BME280;44781;53.444;14.476;2023-07-31T02:33:35;100857.09;;;16.29;70.03
58991;BME280;44781;53.444;14.476;2023-07-31T02:36:25;100855.05;;;16.28;69.97
58991;BME280;44781;53.444;14.476;2023-07-31T02:38:53;100851.36;;;16.28;70.20
58991;BME280;44781;53.444;14.476;2023-07-31T02:41:20;100847.65;;;16.25;70.16
58991;BME280;44781;53.444;14.476;2023-07-31T02:43:47;100845.36;;;16.25;70.23
58991;BME280;44781;53.444;14.476;2023-07-31T02:46:14;100842.96;;;16.26;70.32
58991;BME280;44781;53.444;14.476;2023-07-31T02:48:41;100836.96;;;16.25;70.37
58991;BME280;44781;53.444;14.476;2023-07-31T02:51:08;100838.05;;;16.24;70.42
58991;BME280;44781;53.444;14.476;2023-07-31T02:53:35;100841.34;;;16.21;70.51
58991;BME280;44781;53.444;14.476;2023-07-31T02:56:02;100842.23;;;16.17;70.52
58991;BME280;44781;53.444;14.476;2023-07-31T02:58:28;100841.63;;;16.14;70.57
58991;BME280;44781;53.444;14.476;2023-07-31T03:00:58;100842.67;;;16.11;70.59
58991;BME280;44781;53.444;14.476;2023-07-31T03:03:25;100834.05;;;16.08;70.73
58991;BME280;44781;53.444;14.476;2023-07-31T03:05:52;100833.23;;;16.05;71.12
58991;BME280;44781;53.444;14.476;2023-07-31T03:08:21;100835.31;;;16.04;71.10
58991;BME280;44781;53.444;14.476;2023-07-31T03:10:50;100835.11;;;16.02;71.35
58991;BME280;44781;53.444;14.476;2023-07-31T03:13:16;100835.23;;;16.01;71.45
58991;BME280;44781;53.444;14.476;2023-07-31T03:15:43;100837.19;;;16.02;71.60
58991;BME280;44781;53.444;14.476;2023-07-31T03:18:10;100839.92;;;16.02;71.89
58991;BME280;44781;53.444;14.476;2023-07-31T03:20:37;100836.83;;;16.03;71.86
58991;BME280;44781;53.444;14.476;2023-07-31T03:23:08;100836.27;;;16.03;72.08
58991;BME280;44781;53.444;14.476;2023-07-31T03:25:35;100835.61;;;16.01;72.02
58991;BME280;44781;53.444;14.476;2023-07-31T03:28:02;100835.92;;;16.00;72.38
58991;BME280;44781;53.444;14.476;2023-07-31T03:30:30;100836.55;;;15.99;72.43
58991;BME280;44781;53.444;14.476;2023-07-31T03:32:57;100829.27;;;15.99;72.54
58991;BME280;44781;53.444;14.476;2023-07-31T03:35:24;100827.27;;;15.99;72.40
58991;BME280;44781;53.444;14.476;2023-07-31T03:37:51;100828.05;;;16.00;72.53
58991;BME280;44781;53.444;14.476;2023-07-31T03:40:18;100824.72;;;16.01;72.82
58991;BME280;44781;53.444;14.476;2023-07-31T03:42:45;100819.70;;;16.03;72.84
58991;BME280;44781;53.444;14.476;2023-07-31T03:45:12;100822.30;;;16.06;72.97
58991;BME280;44781;53.444;14.476;2023-07-31T03:47:39;100822.20;;;16.09;73.16
58991;BME280;44781;53.444;14.476;2023-07-31T03:50:06;100821.64;;;16.13;73.13
58991;BME280;44781;53.444;14.476;2023-07-31T03:52:33;100821.98;;;16.16;73.15
58991;BME280;44781;53.444;14.476;2023-07-31T03:55:00;100820.77;;;16.20;73.41
58991;BME280;44781;53.444;14.476;2023-07-31T03:57:27;100816.80;;;16.22;73.47
58991;BME280;44781;53.444;14.476;2023-07-31T03:59:54;100821.21;;;16.24;73.53
58991;BME280;44781;53.444;14.476;2023-07-31T04:02:21;100817.04;;;16.27;73.50
58991;BME280;44781;53.444;14.476;2023-07-31T04:04:47;100817.58;;;16.28;73.62
58991;BME280;44781;53.444;14.476;2023-07-31T04:07:14;100817.50;;;16.31;73.64
58991;BME280;44781;53.444;14.476;2023-07-31T04:09:41;100818.33;;;16.33;73.72
58991;BME280;44781;53.444;14.476;2023-07-31T04:12:08;100818.94;;;16.36;73.47
58991;BME280;44781;53.444;14.476;2023-07-31T04:14:35;100824.54;;;16.39;73.37
58991;BME280;44781;53.444;14.476;2023-07-31T04:17:02;100819.05;;;16.43;73.35
58991;BME280;44781;53.444;14.476;2023-07-31T04:19:29;100820.16;;;16.46;73.18
58991;BME280;44781;53.444;14.476;2023-07-31T04:21:56;100816.86;;;16.48;73.09
58991;BME280;44781;53.444;14.476;2023-07-31T04:24:23;100815.91;;;16.50;72.98
58991;BME280;44781;53.444;14.476;2023-07-31T04:26:53;100811.05;;;16.53;72.87
58991;BME280;44781;53.444;14.476;2023-07-31T04:29:20;100814.15;;;16.56;73.12
58991;BME280;44781;53.444;14.476;2023-07-31T04:31:48;100815.48;;;16.59;73.36
58991;BME280;44781;53.444;14.476;2023-07-31T04:34:15;100818.51;;;16.60;73.44
58991;BME280;44781;53.444;14.476;2023-07-31T04:36:41;100819.21;;;16.62;73.71
58991;BME280;44781;53.444;14.476;2023-07-31T04:39:08;100821.31;;;16.64;73.78
58991;BME280;44781;53.444;14.476;2023-07-31T04:41:38;100819.32;;;16.66;73.75
58991;BME280;44781;53.444;14.476;2023-07-31T04:44:05;100820.11;;;16.69;73.97
58991;BME280;44781;53.444;14.476;2023-07-31T04:46:32;100819.77;;;16.72;73.89
58991;BME280;44781;53.444;14.476;2023-07-31T04:48:58;100812.51;;;16.75;73.92
58991;BME280;44781;53.444;14.476;2023-07-31T04:51:25;100810.21;;;16.79;74.03
58991;BME280;44781;53.444;14.476;2023-07-31T04:53:52;100803.67;;;16.82;74.28
58991;BME280;44781;53.444;14.476;2023-07-31T04:56:19;100799.15;;;16.85;74.48
58991;BME280;44781;53.444;14.476;2023-07-31T04:58:46;100802.55;;;16.88;74.41
58991;BME280;44781;53.444;14.476;2023-07-31T05:01:13;100807.25;;;16.89;74.55
58991;BME280;44781;53.444;14.476;2023-07-31T05:03:40;100806.10;;;16.88;74.58
58991;BME280;44781;53.444;14.476;2023-07-31T05:06:07;100805.74;;;16.88;74.74
58991;BME280;44781;53.444;14.476;2023-07-31T05:08:36;100805.05;;;16.90;74.65
58991;BME280;44781;53.444;14.476;2023-07-31T05:11:03;100805.72;;;16.90;74.62
58991;BME280;44781;53.444;14.476;2023-07-31T05:13:30;100800.46;;;16.91;74.57
58991;BME280;44781;53.444;14.476;2023-07-31T05:15:57;100800.98;;;16.93;74.48
58991;BME280;44781;53.444;14.476;2023-07-31T05:18:23;100798.35;;;16.94;74.77
58991;BME280;44781;53.444;14.476;2023-07-31T05:20:50;100789.78;;;16.96;74.94
58991;BME280;44781;53.444;14.476;2023-07-31T05:23:17;100786.27;;;16.99;74.64
58991;BME280;44781;53.444;14.476;2023-07-31T05:25:44;100783.81;;;17.02;74.62
58991;BME280;44781;53.444;14.476;2023-07-31T05:28:12;100784.30;;;17.04;74.91
58991;BME280;44781;53.444;14.476;2023-07-31T05:30:39;100780.56;;;17.06;74.95
58991;BME280;44781;53.444;14.476;2023-07-31T05:33:06;100776.65;;;17.07;75.01
58991;BME280;44781;53.444;14.476;2023-07-31T05:35:32;100774.41;;;17.08;75.02
58991;BME280;44781;53.444;14.476;2023-07-31T05:37:59;100773.41;;;17.09;75.13
58991;BME280;44781;53.444;14.476;2023-07-31T05:40:26;100771.65;;;17.11;75.20
58991;BME280;44781;53.444;14.476;2023-07-31T05:42:53;100768.45;;;17.12;75.20
58991;BME280;44781;53.444;14.476;2023-07-31T05:45:20;100764.77;;;17.15;75.23
58991;BME280;44781;53.444;14.476;2023-07-31T05:47:47;100761.80;;;17.18;75.41
58991;BME280;44781;53.444;14.476;2023-07-31T05:50:14;100755.58;;;17.21;75.07
58991;BME280;44781;53.444;14.476;2023-07-31T05:52:41;100760.91;;;17.25;75.38
58991;BME280;44781;53.444;14.476;2023-07-31T05:55:09;100763.74;;;17.28;75.47
58991;BME280;44781;53.444;14.476;2023-07-31T05:57:36;100763.73;;;17.32;75.28
58991;BME280;44781;53.444;14.476;2023-07-31T06:00:03;100761.13;;;17.37;75.08
58991;BME280;44781;53.444;14.476;2023-07-31T06:02:32;100758.58;;;17.41;75.14
58991;BME280;44781;53.444;14.476;2023-07-31T06:05:04;100755.53;;;17.42;74.85
58991;BME280;44781;53.444;14.476;2023-07-31T06:07:32;100754.30;;;17.44;74.71
58991;BME280;44781;53.444;14.476;2023-07-31T06:09:59;100757.02;;;17.45;74.35
58991;BME280;44781;53.444;14.476;2023-07-31T06:12:32;100753.98;;;17.47;74.18
58991;BME280;44781;53.444;14.476;2023-07-31T06:14:59;100755.16;;;17.49;74.25
58991;BME280;44781;53.444;14.476;2023-07-31T06:17:26;100751.41;;;17.51;74.29
58991;BME280;44781;53.444;14.476;2023-07-31T06:19:53;100752.46;;;17.55;74.35
58991;BME280;44781;53.444;14.476;2023-07-31T06:22:20;100752.65;;;17.61;74.27
58991;BME280;44781;53.444;14.476;2023-07-31T06:24:47;100752.88;;;17.67;74.33
58991;BME280;44781;53.444;14.476;2023-07-31T06:27:15;100752.41;;;17.73;74.30
58991;BME280;44781;53.444;14.476;2023-07-31T06:29:43;100755.68;;;17.80;74.34
58991;BME280;44781;53.444;14.476;2023-07-31T06:32:13;100760.44;;;17.85;74.13
58991;BME280;44781;53.444;14.476;2023-07-31T06:34:40;100754.63;;;17.90;73.81
58991;BME280;44781;53.444;14.476;2023-07-31T06:37:07;100747.73;;;17.93;73.51
58991;BME280;44781;53.444;14.476;2023-07-31T06:39:34;100745.55;;;17.91;73.45
58991;BME280;44781;53.444;14.476;2023-07-31T06:42:01;100756.33;;;17.97;73.33
58991;BME280;44781;53.444;14.476;2023-07-31T06:44:29;100752.90;;;17.99;73.33
58991;BME280;44781;53.444;14.476;2023-07-31T06:47:02;100752.77;;;18.04;73.43
58991;BME280;44781;53.444;14.476;2023-07-31T06:49:30;100745.20;;;18.08;73.35
58991;BME280;44781;53.444;14.476;2023-07-31T06:51:57;100744.84;;;18.13;73.34
58991;BME280;44781;53.444;14.476;2023-07-31T06:54:24;100741.76;;;18.18;73.23
58991;BME280;44781;53.444;14.476;2023-07-31T06:56:51;100744.00;;;18.24;73.09
58991;BME280;44781;53.444;14.476;2023-07-31T06:59:18;100738.01;;;18.28;72.73
58991;BME280;44781;53.444;14.476;2023-07-31T07:01:45;100736.88;;;18.32;72.48
58991;BME280;44781;53.444;14.476;2023-07-31T07:04:12;100735.80;;;18.35;72.07
58991;BME280;44781;53.444;14.476;2023-07-31T07:06:39;100731.30;;;18.37;71.79
58991;BME280;44781;53.444;14.476;2023-07-31T07:09:06;100727.42;;;18.40;71.53
58991;BME280;44781;53.444;14.476;2023-07-31T07:11:33;100721.62;;;18.42;71.58
58991;BME280;44781;53.444;14.476;2023-07-31T07:14:00;100720.95;;;18.45;71.52
58991;BME280;44781;53.444;14.476;2023-07-31T07:16:28;100722.61;;;18.49;71.39
58991;BME280;44781;53.444;14.476;2023-07-31T07:18:55;100719.19;;;18.55;71.27
58991;BME280;44781;53.444;14.476;2023-07-31T07:21:24;100719.65;;;18.60;70.89
58991;BME280;44781;53.444;14.476;2023-07-31T07:23:51;100712.83;;;18.65;70.37
58991;BME280;44781;53.444;14.476;2023-07-31T07:26:18;100711.73;;;18.72;70.26
58991;BME280;44781;53.444;14.476;2023-07-31T07:28:45;100707.23;;;18.79;69.99
58991;BME280;44781;53.444;14.476;2023-07-31T07:31:12;100707.78;;;18.87;70.04
58991;BME280;44781;53.444;14.476;2023-07-31T07:33:39;100710.48;;;18.93;69.56
58991;BME280;44781;53.444;14.476;2023-07-31T07:36:06;100710.02;;;18.99;69.37
58991;BME280;44781;53.444;14.476;2023-07-31T07:38:36;100709.36;;;19.03;69.05
58991;BME280;44781;53.444;14.476;2023-07-31T07:41:03;100704.66;;;19.06;68.53
58991;BME280;44781;53.444;14.476;2023-07-31T07:43:30;100701.75;;;19.10;68.28
58991;BME280;44781;53.444;14.476;2023-07-31T07:45:57;100702.66;;;19.13;68.28
58991;BME280;44781;53.444;14.476;2023-07-31T07:48:24;100702.95;;;19.15;68.02
58991;BME280;44781;53.444;14.476;2023-07-31T07:50:52;100698.81;;;19.17;67.52
58991;BME280;44781;53.444;14.476;2023-07-31T07:53:19;100701.44;;;19.21;67.47
58991;BME280;44781;53.444;14.476;2023-07-31T07:55:46;100701.50;;;19.25;67.58
58991;BME280;44781;53.444;14.476;2023-07-31T07:58:13;100702.71;;;19.30;67.64
58991;BME280;44781;53.444;14.476;2023-07-31T08:00:40;100701.36;;;19.34;67.30
58991;BME280;44781;53.444;14.476;2023-07-31T08:03:07;100695.59;;;19.38;67.14
58991;BME280;44781;53.444;14.476;2023-07-31T08:05:34;100695.40;;;19.41;67.33
58991;BME280;44781;53.444;14.476;2023-07-31T08:08:01;100695.59;;;19.44;67.18
58991;BME280;44781;53.444;14.476;2023-07-31T08:10:28;100696.45;;;19.47;66.99
58991;BME280;44781;53.444;14.476;2023-07-31T08:12:55;100695.52;;;19.51;67.19
58991;BME280;44781;53.444;14.476;2023-07-31T08:15:21;100694.34;;;19.53;67.07
58991;BME280;44781;53.444;14.476;2023-07-31T08:17:48;100695.14;;;19.54;66.78
58991;BME280;44781;53.444;14.476;2023-07-31T08:20:15;100696.59;;;19.57;66.32
58991;BME280;44781;53.444;14.476;2023-07-31T08:22:42;100695.95;;;19.58;66.19
58991;BME280;44781;53.444;14.476;2023-07-31T08:25:09;100693.89;;;19.60;66.13
58991;BME280;44781;53.444;14.476;2023-07-31T08:27:37;100691.93;;;19.63;65.91
58991;BME280;44781;53.444;14.476;2023-07-31T08:30:05;100688.45;;;19.65;65.90
58991;BME280;44781;53.444;14.476;2023-07-31T08:32:32;100693.77;;;19.69;66.09
58991;BME280;44781;53.444;14.476;2023-07-31T08:34:59;100690.15;;;19.73;65.94
58991;BME280;44781;53.444;14.476;2023-07-31T08:37:26;100693.15;;;19.75;65.78
58991;BME280;44781;53.444;14.476;2023-07-31T08:39:53;100687.93;;;19.76;66.07
58991;BME280;44781;53.444;14.476;2023-07-31T08:42:21;100682.04;;;19.79;66.19
58991;BME280;44781;53.444;14.476;2023-07-31T08:44:48;100676.38;;;19.82;66.14
58991;BME280;44781;53.444;14.476;2023-07-31T08:47:16;100675.19;;;19.84;65.79
58991;BME280;44781;53.444;14.476;2023-07-31T08:49:46;100675.36;;;19.87;65.36
58991;BME280;44781;53.444;14.476;2023-07-31T08:52:13;100672.14;;;19.88;64.79
58991;BME280;44781;53.444;14.476;2023-07-31T08:54:42;100670.34;;;19.89;64.38
58991;BME280;44781;53.444;14.476;2023-07-31T08:57:11;100661.70;;;19.89;64.34
58991;BME280;44781;53.444;14.476;2023-07-31T08:59:39;100656.15;;;19.91;64.71
58991;BME280;44781;53.444;14.476;2023-07-31T09:02:08;100657.63;;;19.93;64.74
58991;BME280;44781;53.444;14.476;2023-07-31T09:04:35;100655.08;;;19.97;64.47
58991;BME280;44781;53.444;14.476;2023-07-31T09:07:03;100653.70;;;19.99;64.13
58991;BME280;44781;53.444;14.476;2023-07-31T09:09:31;100656.32;;;20.03;64.13
58991;BME280;44781;53.444;14.476;2023-07-31T09:12:00;100657.17;;;20.07;63.96
58991;BME280;44781;53.444;14.476;2023-07-31T09:14:32;100655.92;;;20.12;63.89
58991;BME280;44781;53.444;14.476;2023-07-31T09:16:59;100652.85;;;20.19;63.88
58991;BME280;44781;53.444;14.476;2023-07-31T09:19:36;100655.39;;;20.26;63.89
58991;BME280;44781;53.444;14.476;2023-07-31T09:22:07;100657.05;;;20.33;63.40
58991;BME280;44781;53.444;14.476;2023-07-31T09:24:34;100656.27;;;20.40;62.95
58991;BME280;44781;53.444;14.476;2023-07-31T09:27:01;100650.23;;;20.45;62.77
58991;BME280;44781;53.444;14.476;2023-07-31T09:29:29;100647.54;;;20.51;62.78
58991;BME280;44781;53.444;14.476;2023-07-31T09:31:56;100644.89;;;20.57;62.58
58991;BME280;44781;53.444;14.476;2023-07-31T09:34:37;100640.48;;;20.62;62.72
58991;BME280;44781;53.444;14.476;2023-07-31T09:37:07;100640.16;;;20.68;62.61
58991;BME280;44781;53.444;14.476;2023-07-31T09:39:46;100640.85;;;20.73;62.17
58991;BME280;44781;53.444;14.476;2023-07-31T09:42:13;100636.70;;;20.77;62.16
58991;BME280;44781;53.444;14.476;2023-07-31T09:44:40;100634.09;;;20.84;62.13
58991;BME280;44781;53.444;14.476;2023-07-31T09:47:21;100631.98;;;20.91;62.35
58991;BME280;44781;53.444;14.476;2023-07-31T09:49:56;100632.29;;;20.99;61.80
58991;BME280;44781;53.444;14.476;2023-07-31T09:52:26;100623.52;;;21.04;60.86
58991;BME280;44781;53.444;14.476;2023-07-31T09:54:54;100616.99;;;21.09;60.58
58991;BME280;44781;53.444;14.476;2023-07-31T09:57:22;100611.12;;;21.13;60.39
58991;BME280;44781;53.444;14.476;2023-07-31T09:59:51;100613.96;;;21.19;60.20
58991;BME280;44781;53.444;14.476;2023-07-31T10:02:22;100614.52;;;21.25;60.01
58991;BME280;44781;53.444;14.476;2023-07-31T10:04:50;100613.59;;;21.31;59.76
58991;BME280;44781;53.444;14.476;2023-07-31T10:07:18;100610.73;;;21.37;60.01
58991;BME280;44781;53.444;14.476;2023-07-31T10:09:47;100610.35;;;21.43;59.85
58991;BME280;44781;53.444;14.476;2023-07-31T10:12:15;100605.52;;;21.49;59.65
58991;BME280;44781;53.444;14.476;2023-07-31T10:14:45;100600.40;;;21.55;59.58
58991;BME280;44781;53.444;14.476;2023-07-31T10:17:15;100597.63;;;21.60;59.36
58991;BME280;44781;53.444;14.476;2023-07-31T10:19:44;100591.23;;;21.65;59.27
58991;BME280;44781;53.444;14.476;2023-07-31T10:22:12;100588.59;;;21.71;59.08
58991;BME280;44781;53.444;14.476;2023-07-31T10:24:41;100596.48;;;21.76;58.75
58991;BME280;44781;53.444;14.476;2023-07-31T10:27:10;100596.39;;;21.81;58.06
58991;BME280;44781;53.444;14.476;2023-07-31T10:29:38;100591.05;;;21.87;57.60
58991;BME280;44781;53.444;14.476;2023-07-31T10:32:07;100593.38;;;21.92;57.44
58991;BME280;44781;53.444;14.476;2023-07-31T10:34:39;100600.13;;;21.97;57.18
58991;BME280;44781;53.444;14.476;2023-07-31T10:37:27;100590.42;;;22.01;57.09
58991;BME280;44781;53.444;14.476;2023-07-31T10:40:05;100588.23;;;22.06;57.12
58991;BME280;44781;53.444;14.476;2023-07-31T10:42:57;100588.14;;;22.09;56.88
58991;BME280;44781;53.444;14.476;2023-07-31T10:45:42;100579.61;;;22.10;56.69
58991;BME280;44781;53.444;14.476;2023-07-31T10:48:17;100582.23;;;22.11;56.67
58991;BME280;44781;53.444;14.476;2023-07-31T10:50:51;100582.20;;;22.12;56.91
58991;BME280;44781;53.444;14.476;2023-07-31T10:53:32;100573.95;;;22.15;57.34
58991;BME280;44781;53.444;14.476;2023-07-31T10:56:01;100565.33;;;22.21;57.85
58991;BME280;44781;53.444;14.476;2023-07-31T10:58:28;100565.22;;;22.27;58.07
58991;BME280;44781;53.444;14.476;2023-07-31T11:00:57;100564.97;;;22.33;58.15
58991;BME280;44781;53.444;14.476;2023-07-31T11:03:26;100559.77;;;22.40;57.51
58991;BME280;44781;53.444;14.476;2023-07-31T11:06:03;100557.98;;;22.44;56.99
58991;BME280;44781;53.444;14.476;2023-07-31T11:08:32;100554.59;;;22.49;56.42
58991;BME280;44781;53.444;14.476;2023-07-31T11:13:32;100560.82;;;22.49;55.70
58991;BME280;44781;53.444;14.476;2023-07-31T11:16:00;100554.80;;;22.48;55.26
58991;BME280;44781;53.444;14.476;2023-07-31T11:18:27;100554.79;;;22.47;55.19
58991;BME280;44781;53.444;14.476;2023-07-31T11:20:54;100565.04;;;22.45;55.46
58991;BME280;44781;53.444;14.476;2023-07-31T11:23:22;100567.13;;;22.41;55.77
58991;BME280;44781;53.444;14.476;2023-07-31T11:25:50;100563.65;;;22.36;56.04
58991;BME280;44781;53.444;14.476;2023-07-31T11:28:19;100566.52;;;22.31;56.83
58991;BME280;44781;53.444;14.476;2023-07-31T11:30:49;100564.78;;;22.25;57.28
58991;BME280;44781;53.444;14.476;2023-07-31T11:33:16;100568.02;;;22.18;57.75
58991;BME280;44781;53.444;14.476;2023-07-31T11:35:47;100563.38;;;22.11;58.41
58991;BME280;44781;53.444;14.476;2023-07-31T11:40:53;100555.15;;;21.97;59.33
58991;BME280;44781;53.444;14.476;2023-07-31T11:43:21;100549.27;;;21.93;59.64
58991;BME280;44781;53.444;14.476;2023-07-31T11:45:50;100545.98;;;21.89;59.99
58991;BME280;44781;53.444;14.476;2023-07-31T11:48:23;100544.48;;;21.85;60.71
58991;BME280;44781;53.444;14.476;2023-07-31T11:50:51;100547.23;;;21.82;61.41
58991;BME280;44781;53.444;14.476;2023-07-31T11:53:26;100548.26;;;21.78;61.78
58991;BME280;44781;53.444;14.476;2023-07-31T11:55:59;100546.65;;;21.75;62.18
58991;BME280;44781;53.444;14.476;2023-07-31T11:58:28;100544.71;;;21.72;62.64
58991;BME280;44781;53.444;14.476;2023-07-31T12:00:56;100549.77;;;21.71;63.01
58991;BME280;44781;53.444;14.476;2023-07-31T12:03:25;100545.85;;;21.69;63.48
58991;BME280;44781;53.444;14.476;2023-07-31T12:05:54;100543.09;;;21.66;63.64
58991;BME280;44781;53.444;14.476;2023-07-31T12:08:36;100535.55;;;21.63;64.18
58991;BME280;44781;53.444;14.476;2023-07-31T12:11:04;100535.13;;;21.61;64.40
58991;BME280;44781;53.444;14.476;2023-07-31T12:13:44;100537.52;;;21.58;64.13
58991;BME280;44781;53.444;14.476;2023-07-31T12:16:12;100532.96;;;21.51;63.84
58991;BME280;44781;53.444;14.476;2023-07-31T12:18:42;100536.96;;;21.45;64.03
58991;BME280;44781;53.444;14.476;2023-07-31T12:21:13;100534.56;;;21.38;64.17
58991;BME280;44781;53.444;14.476;2023-07-31T12:23:45;100531.42;;;21.32;64.56
58991;BME280;44781;53.444;14.476;2023-07-31T12:26:19;100530.77;;;21.24;64.97
58991;BME280;44781;53.444;14.476;2023-07-31T12:28:54;100526.99;;;21.18;65.50
58991;BME280;44781;53.444;14.476;2023-07-31T12:31:27;100529.52;;;21.15;66.13
58991;BME280;44781;53.444;14.476;2023-07-31T12:33:55;100524.23;;;21.12;66.10
58991;BME280;44781;53.444;14.476;2023-07-31T12:36:23;100522.98;;;21.09;66.21
58991;BME280;44781;53.444;14.476;2023-07-31T12:38:51;100523.48;;;21.03;65.94
58991;BME280;44781;53.444;14.476;2023-07-31T12:41:20;100524.40;;;20.96;65.83
58991;BME280;44781;53.444;14.476;2023-07-31T12:43:47;100521.02;;;20.87;66.00
58991;BME280;44781;53.444;14.476;2023-07-31T12:46:14;100522.95;;;20.79;66.53
58991;BME280;44781;53.444;14.476;2023-07-31T12:48:42;100520.61;;;20.70;66.95
58991;BME280;44781;53.444;14.476;2023-07-31T12:51:09;100514.60;;;20.62;67.23
58991;BME280;44781;53.444;14.476;2023-07-31T12:53:36;100515.92;;;20.57;67.43
58991;BME280;44781;53.444;14.476;2023-07-31T12:56:06;100514.27;;;20.51;67.39